AIRPORT MAP

 RUNWAY INFORMATION

Runway 10 Runway length 4948 ft Runway width 98 ft
Runway elevation 16 ft Runway displaced threshold 358 ft Runway heading 93
Runway 28 Runway length 4948 ft Runway width 98 ft
Runway elevation 19 ft Runway displaced threshold 211 ft Runway heading 273

 AIRPORT FREQUENCIES

Type APP Name APP Frequency 132.7 MHZ
Type ATIS Name ATIS Frequency 136.35 MHZ
Type GND Name GND Frequency 121.825 MHZ
Type TWR Name TWR Frequency 118.075 MHZ

 AIRPORT NEAR NAVIGATION AIDS

Type NDB Name City Frequency 322 KHZ

 METAR AND TAF INFORMATION

METAR FOR EGLC
ADDS - METARS form results

(1939 UTC 22 February 2020)
Data provider http://aviationweather.gov/metar/data/
 
METAR text: EGLC 221920Z AUTO 27018G29KT 9999 OVC033 11/04 Q1021
Conditions at: EGLC (LONDON CITY AIRP, GB) observed 1920 UTC 22 February 2020
Temperature: 11.0°C (52°F)
Dewpoint: 4.0°C (39°F) [RH = 62%]
Pressure (altimeter): 30.15 inches Hg (1021.0 mb)
Winds: from the W (270 degrees) at 21 MPH (18 knots; 9.3 m/s)
gusting to 33 MPH (29 knots; 14.9 m/s)
Visibility: 6 or more miles (10+ km)
Ceiling: 3300 feet AGL
Clouds: overcast cloud deck at 3300 feet AGL
Weather: no significant weather observed at this time

METAR text: EGLC 221850Z AUTO 25017KT 9999 BKN039 12/04 Q1020
Conditions at: EGLC (LONDON CITY AIRP, GB) observed 1850 UTC 22 February 2020
Temperature: 12.0°C (54°F)
Dewpoint: 4.0°C (39°F) [RH = 58%]
Pressure (altimeter): 30.12 inches Hg (1020.0 mb)
Winds: from the WSW (250 degrees) at 20 MPH (17 knots; 8.7 m/s)
Visibility: 6 or more miles (10+ km)
Ceiling: 3900 feet AGL
Clouds: broken clouds at 3900 feet AGL
Weather: no significant weather observed at this time

Forecast for: EGLC (LONDON CITY AIRP, GB)
Text: TAF EGLC 220753Z 2209/2213 24018G28KT 9999 BKN022
Forecast period: 0900 to 1300 UTC 22 February 2020
Forecast type: FROM: standard forecast or significant change
Winds: from the WSW (240 degrees) at 21 MPH (18 knots; 9.3 m/s)
gusting to 32 MPH (28 knots; 14.4 m/s)
Visibility: 6 or more miles 10+ km)
Ceiling: 2200 feet AGL
Clouds: broken clouds at 2200 feet AGL
Weather: no significant weather forecast for this period
Text: TEMPO 2209/2211 7000 -RA BKN014
Forecast period: 0900 to 1100 UTC 22 February 2020
Forecast type: TEMPORARY: The following changes expected for less than half the time period
Visibility: 4 miles (7 km)
Ceiling: 1400 feet AGL
Clouds: broken clouds at 1400 feet AGL
Weather: -RA  (light rain)